Aviation Digital Data Service (ADDS)

Output produced by TAFs form (0810 UTC 18 November 2017)
found at http://aviationweather.gov/adds/tafs/
 
KDMN 180540Z 1806/1906 28008KT P6SM SCT120 BKN250 
     FM181300 33013KT P6SM FEW140 SCT250 
     FM181800 07013G23KT P6SM FEW140 SCT250 
     FM190000 07006KT P6SM FEW250